Time;durP1;ratioP1;P1;durP2;ratioP2;P2;SDS_P1;SDS_P2;PMS_P1;PMS_P2;Temp;Humidity;BMP_temperature;BMP_pressure;BME280_temperature;BME280_humidity;BME280_pressure;Samples;Min_cycle;Max_cycle;Signal;HPM_P1;HPM_P2
2023/10/20 00:00:06;;;;;;;12.13;6.78;;;13.90;99.90;;;;;;5100548;28;20027;-79
2023/10/20 00:02:33;;;;;;;9.23;4.30;;;13.90;99.90;;;;;;5111974;28;20041;-80
2023/10/20 00:05:00;;;;;;;11.23;4.70;;;14.00;99.90;;;;;;5111341;28;20031;-80
2023/10/20 00:07:26;;;;;;;6.50;4.22;;;14.00;99.90;;;;;;5092909;28;20349;-80
2023/10/20 00:09:53;;;;;;;9.93;4.40;;;14.10;99.90;;;;;;5111671;28;20024;-74
2023/10/20 00:12:19;;;;;;;8.93;3.90;;;14.10;99.90;;;;;;5111514;28;20024;-79
2023/10/20 00:14:45;;;;;;;6.75;3.47;;;14.10;99.90;;;;;;5111829;28;20491;-79
2023/10/20 00:17:10;;;;;;;7.30;3.90;;;14.20;99.90;;;;;;5110703;28;20054;-81
2023/10/20 00:19:36;;;;;;;7.85;4.25;;;14.20;99.90;;;;;;5111723;28;20024;-79
2023/10/20 00:22:01;;;;;;;7.78;3.60;;;14.20;99.90;;;;;;5111062;28;20026;-81
2023/10/20 00:24:27;;;;;;;7.30;3.55;;;14.20;99.90;;;;;;5111206;28;20023;-81
2023/10/20 00:26:53;;;;;;;6.07;3.35;;;14.20;99.90;;;;;;5111328;28;20401;-77
2023/10/20 00:29:19;;;;;;;6.80;3.58;;;14.20;99.90;;;;;;5110775;28;20047;-79
2023/10/20 00:31:44;;;;;;;6.68;3.60;;;14.30;99.90;;;;;;5111720;28;20028;-77
2023/10/20 00:34:10;;;;;;;9.73;3.90;;;14.20;99.90;;;;;;5110036;28;20181;-74
2023/10/20 00:36:36;;;;;;;10.55;3.53;;;14.20;99.90;;;;;;5110947;28;20057;-75
2023/10/20 00:39:02;;;;;;;6.15;3.53;;;14.20;99.90;;;;;;5126218;27;20046;-75
2023/10/20 00:41:28;;;;;;;7.40;3.65;;;14.20;99.90;;;;;;5110587;28;20034;-80
2023/10/20 00:43:53;;;;;;;7.00;3.67;;;14.20;99.90;;;;;;5110490;28;20023;-77
2023/10/20 00:46:19;;;;;;;5.78;3.53;;;14.10;99.90;;;;;;5110604;28;20049;-78
2023/10/20 00:48:45;;;;;;;7.88;3.85;;;14.10;99.90;;;;;;5111627;28;20032;-77
2023/10/20 00:51:11;;;;;;;6.32;3.42;;;14.00;99.90;;;;;;5092040;28;20038;-78
2023/10/20 00:53:37;;;;;;;6.80;3.92;;;14.10;99.90;;;;;;5111001;28;20100;-78
2023/10/20 00:56:05;;;;;;;5.68;3.25;;;14.10;99.90;;;;;;5110046;28;20359;-81
2023/10/20 00:58:31;;;;;;;5.75;3.20;;;14.10;99.90;;;;;;5110953;28;20059;-80
2023/10/20 01:00:56;;;;;;;6.72;3.78;;;14.10;99.90;;;;;;5109539;28;20030;-75
2023/10/20 01:03:22;;;;;;;7.10;3.90;;;14.00;99.90;;;;;;5092202;28;20114;-81
2023/10/20 01:05:48;;;;;;;10.98;3.70;;;14.10;99.90;;;;;;5126626;27;20698;-78
2023/10/20 01:08:15;;;;;;;8.95;3.75;;;14.00;99.90;;;;;;5091210;28;20488;-79
2023/10/20 01:10:41;;;;;;;6.88;3.30;;;14.00;99.90;;;;;;5110550;28;20491;-78
2023/10/20 01:13:08;;;;;;;10.70;4.00;;;14.00;99.90;;;;;;5109882;28;20041;-80
2023/10/20 01:15:34;;;;;;;6.70;3.05;;;14.00;99.90;;;;;;5110218;28;20447;-79
2023/10/20 01:18:00;;;;;;;7.18;3.83;;;14.00;99.90;;;;;;5109223;28;20356;-76
2023/10/20 01:20:26;;;;;;;8.90;4.07;;;14.00;99.90;;;;;;5111106;28;20077;-79
2023/10/20 01:22:51;;;;;;;7.32;3.53;;;14.00;99.90;;;;;;5091408;28;20076;-78
2023/10/20 01:25:17;;;;;;;6.55;3.85;;;14.00;99.90;;;;;;5125566;27;20111;-79
2023/10/20 01:27:43;;;;;;;7.72;3.22;;;14.10;99.90;;;;;;5110179;28;20107;-79
2023/10/20 01:30:10;;;;;;;6.78;3.72;;;14.20;99.90;;;;;;5109271;28;20020;-78
2023/10/20 01:32:36;;;;;;;7.35;3.20;;;14.10;99.90;;;;;;5109940;28;20085;-79
2023/10/20 01:35:03;;;;;;;6.38;2.95;;;14.10;99.90;;;;;;5109454;28;20016;-79
2023/10/20 01:37:29;;;;;;;8.25;3.65;;;14.10;99.90;;;;;;5091289;28;20372;-79
2023/10/20 01:39:55;;;;;;;10.85;3.83;;;14.20;99.90;;;;;;5109836;28;20027;-79
2023/10/20 01:42:21;;;;;;;5.90;3.40;;;14.20;99.90;;;;;;5108955;28;20054;-77
2023/10/20 01:44:47;;;;;;;6.15;3.10;;;14.10;99.90;;;;;;5108736;28;20088;-78
2023/10/20 01:47:13;;;;;;;7.20;3.22;;;14.20;99.90;;;;;;5108280;28;20034;-79
2023/10/20 01:49:38;;;;;;;10.60;3.45;;;14.30;99.90;;;;;;5110752;28;20110;-79
2023/10/20 01:52:04;;;;;;;5.93;3.28;;;14.30;99.90;;;;;;5109191;28;20652;-78
2023/10/20 01:54:30;;;;;;;10.27;3.60;;;14.30;99.90;;;;;;5109721;28;20372;-77
2023/10/20 01:56:55;;;;;;;7.03;3.63;;;14.20;99.90;;;;;;5111079;27;20023;-78
2023/10/20 01:59:21;;;;;;;7.07;3.72;;;14.30;99.90;;;;;;5089988;28;20032;-80
2023/10/20 02:01:47;;;;;;;5.60;3.47;;;14.30;99.90;;;;;;5091044;28;20023;-78
2023/10/20 02:04:14;;;;;;;6.30;3.67;;;14.30;99.90;;;;;;5108067;28;20023;-80
2023/10/20 02:06:39;;;;;;;6.03;3.60;;;14.20;99.90;;;;;;5109259;28;20148;-79
2023/10/20 02:09:06;;;;;;;8.73;3.90;;;14.20;99.90;;;;;;5108584;28;20095;-80
2023/10/20 02:11:32;;;;;;;11.85;3.88;;;14.00;99.90;;;;;;5109834;28;20031;-77
2023/10/20 02:13:57;;;;;;;9.00;4.15;;;13.90;99.90;;;;;;5109249;28;20524;-76
2023/10/20 02:16:24;;;;;;;10.60;4.47;;;13.90;99.90;;;;;;5108032;28;20126;-79
2023/10/20 02:18:49;;;;;;;11.57;4.78;;;13.80;99.90;;;;;;5109689;28;20713;-82
2023/10/20 02:21:15;;;;;;;7.85;4.53;;;13.70;99.90;;;;;;5108498;28;20027;-79
2023/10/20 02:23:41;;;;;;;9.60;5.20;;;13.60;99.90;;;;;;5109098;28;20106;-80
2023/10/20 02:26:08;;;;;;;10.10;5.25;;;13.40;99.90;;;;;;5108643;28;20080;-82
2023/10/20 02:28:37;;;;;;;9.73;5.55;;;13.40;99.90;;;;;;5108908;28;20084;-81
2023/10/20 02:31:14;;;;;;;12.02;5.97;;;13.30;99.90;;;;;;5106922;28;20020;-77
2023/10/20 02:33:40;;;;;;;10.98;5.97;;;13.20;99.90;;;;;;5083923;28;20027;-81
2023/10/20 02:36:06;;;;;;;13.65;6.88;;;13.20;99.90;;;;;;5108587;28;20098;-80
2023/10/20 02:38:32;;;;;;;13.70;7.15;;;13.20;99.90;;;;;;5109685;28;20106;-80
2023/10/20 02:40:57;;;;;;;14.75;8.30;;;13.10;99.90;;;;;;5108246;28;20020;-78
2023/10/20 02:43:23;;;;;;;19.90;9.15;;;13.10;99.90;;;;;;5107382;28;20031;-80
2023/10/20 02:45:49;;;;;;;16.92;9.52;;;13.10;99.90;;;;;;5090388;28;20027;-80
2023/10/20 02:48:15;;;;;;;19.50;9.48;;;13.10;99.90;;;;;;5107661;28;20348;-79
2023/10/20 02:50:41;;;;;;;18.65;10.40;;;13.10;99.90;;;;;;5090945;28;20031;-78
2023/10/20 02:53:07;;;;;;;20.35;10.00;;;13.10;99.90;;;;;;5106936;28;20031;-79
2023/10/20 02:55:33;;;;;;;18.98;10.48;;;13.10;99.90;;;;;;5108735;28;20027;-80
2023/10/20 02:58:00;;;;;;;21.33;10.82;;;13.10;99.90;;;;;;5108757;28;20020;-77
2023/10/20 03:00:26;;;;;;;18.98;11.13;;;13.10;99.90;;;;;;5107686;28;20035;-79
2023/10/20 03:02:53;;;;;;;18.77;10.95;;;13.10;99.90;;;;;;5101343;28;20101;-80
2023/10/20 03:05:20;;;;;;;23.17;11.20;;;13.10;99.90;;;;;;5101218;28;20059;-77
2023/10/20 03:07:46;;;;;;;22.92;11.82;;;13.10;99.90;;;;;;5107206;28;20455;-79
2023/10/20 03:10:12;;;;;;;28.92;13.38;;;13.10;99.90;;;;;;5089831;28;20047;-78
2023/10/20 03:12:38;;;;;;;27.70;12.77;;;13.00;99.90;;;;;;5091431;28;20067;-78
2023/10/20 03:15:06;;;;;;;20.83;11.80;;;13.00;99.90;;;;;;5112666;28;20040;-75
2023/10/20 03:17:32;;;;;;;23.58;13.00;;;13.00;99.90;;;;;;5112377;28;20043;-79
2023/10/20 03:19:57;;;;;;;28.02;13.93;;;12.90;99.90;;;;;;5113444;28;20375;-80
2023/10/20 03:22:23;;;;;;;29.40;12.68;;;12.90;99.90;;;;;;5111771;28;20023;-79
2023/10/20 03:24:49;;;;;;;26.98;14.00;;;12.90;99.90;;;;;;5112757;28;20034;-78
2023/10/20 03:27:14;;;;;;;27.98;13.70;;;12.90;99.90;;;;;;5112112;28;20030;-78
2023/10/20 03:29:40;;;;;;;27.00;13.77;;;12.90;99.90;;;;;;5112944;28;20035;-79
2023/10/20 03:32:05;;;;;;;26.70;13.68;;;12.80;99.90;;;;;;5112364;28;20038;-75
2023/10/20 03:34:33;;;;;;;28.00;13.15;;;12.90;99.90;;;;;;5113922;28;20047;-77
2023/10/20 03:37:01;;;;;;;31.88;13.77;;;12.80;99.90;;;;;;5111482;28;20024;-79
2023/10/20 03:39:27;;;;;;;25.63;13.63;;;12.80;99.90;;;;;;5110852;28;20027;-80
2023/10/20 03:41:53;;;;;;;26.13;14.18;;;12.70;99.90;;;;;;5112649;28;20024;-80
2023/10/20 03:44:22;;;;;;;28.40;14.35;;;12.70;99.90;;;;;;5110492;28;20758;-80
2023/10/20 03:46:49;;;;;;;32.72;14.00;;;12.70;99.90;;;;;;5110683;28;20026;-79
2023/10/20 03:49:18;;;;;;;32.92;14.55;;;12.70;99.90;;;;;;5113129;27;20066;-78
2023/10/20 03:51:50;;;;;;;26.67;14.48;;;12.60;99.90;;;;;;5110246;28;20028;-78
2023/10/20 03:54:18;;;;;;;32.67;15.48;;;12.50;99.90;;;;;;5092649;28;20108;-79
2023/10/20 03:56:44;;;;;;;27.15;14.30;;;12.50;99.90;;;;;;5111819;28;20028;-79
2023/10/20 03:59:11;;;;;;;26.98;14.70;;;12.50;99.90;;;;;;5093305;28;20027;-77
2023/10/20 04:01:37;;;;;;;29.70;16.10;;;12.40;99.90;;;;;;5099321;27;20456;-76
2023/10/20 04:04:08;;;;;;;32.53;15.63;;;12.40;99.90;;;;;;5119779;27;20031;-76
2023/10/20 04:06:35;;;;;;;26.95;15.32;;;12.30;99.90;;;;;;5111970;28;20145;-77
2023/10/20 04:09:01;;;;;;;30.52;15.20;;;12.30;99.90;;;;;;5112151;28;20069;-80
2023/10/20 04:11:27;;;;;;;33.60;16.77;;;12.20;99.90;;;;;;5115727;27;20027;-81
2023/10/20 04:13:53;;;;;;;38.63;17.88;;;12.10;99.90;;;;;;5117736;27;20020;-79
2023/10/20 04:16:19;;;;;;;36.70;19.05;;;12.10;99.90;;;;;;5111188;28;20024;-78
2023/10/20 04:18:46;;;;;;;35.22;18.52;;;12.10;99.90;;;;;;5112216;28;20078;-78
2023/10/20 04:21:13;;;;;;;35.92;18.70;;;12.10;99.90;;;;;;5111191;28;20028;-78
2023/10/20 04:23:39;;;;;;;34.33;17.73;;;12.10;99.90;;;;;;5093056;28;20446;-73
2023/10/20 04:26:15;;;;;;;36.47;18.95;;;12.10;99.90;;;;;;5111542;28;20349;-76
2023/10/20 04:28:42;;;;;;;34.67;18.20;;;12.20;99.90;;;;;;5111951;28;20059;-78
2023/10/20 04:50:28;;;;;;;37.22;19.50;;;11.90;99.90;;;;;;5111545;28;20028;-81
2023/10/20 04:58:24;;;;;;;42.58;21.73;;;11.80;99.90;;;;;;5111606;28;20042;-78
2023/10/20 05:01:03;;;;;;;40.22;21.33;;;11.80;99.90;;;;;;5109679;28;20023;-79
2023/10/20 05:03:45;;;;;;;46.47;24.05;;;11.70;99.90;;;;;;5117175;27;20035;-77
2023/10/20 05:06:25;;;;;;;45.05;22.88;;;11.70;99.90;;;;;;5109998;28;20038;-75
2023/10/20 05:08:51;;;;;;;45.58;23.50;;;11.70;99.90;;;;;;5126768;27;20027;-78
2023/10/20 05:11:17;;;;;;;49.92;24.65;;;11.60;99.90;;;;;;5109695;28;20035;-77
2023/10/20 05:13:43;;;;;;;48.97;24.95;;;11.60;99.90;;;;;;5111185;27;20070;-80
2023/10/20 05:16:12;;;;;;;50.42;25.55;;;11.50;99.90;;;;;;5115078;27;20056;-76
2023/10/20 05:18:39;;;;;;;47.05;25.05;;;11.50;99.90;;;;;;5125507;27;20059;-79
2023/10/20 05:21:12;;;;;;;50.85;26.30;;;11.50;99.90;;;;;;5109956;28;20041;-77
2023/10/20 05:23:39;;;;;;;52.75;26.23;;;11.50;99.90;;;;;;5110624;28;20024;-75
2023/10/20 05:26:04;;;;;;;52.25;26.58;;;11.40;99.90;;;;;;5110200;28;20037;-79
2023/10/20 05:28:33;;;;;;;50.30;26.60;;;11.40;99.90;;;;;;5109598;28;20559;-80
2023/10/20 05:30:59;;;;;;;54.70;27.30;;;11.40;99.90;;;;;;5109255;28;20053;-78
2023/10/20 05:33:27;;;;;;;50.22;26.52;;;11.30;99.90;;;;;;5109227;28;20418;-77
2023/10/20 05:35:59;;;;;;;53.33;25.67;;;11.40;99.90;;;;;;5109832;28;20027;-80
2023/10/20 05:38:24;;;;;;;48.63;25.15;;;11.40;99.90;;;;;;5109494;28;20023;-77
2023/10/20 05:40:58;;;;;;;47.17;24.50;;;11.40;99.90;;;;;;5110598;28;20031;-78
2023/10/20 05:43:24;;;;;;;48.78;24.63;;;11.40;99.90;;;;;;5125947;27;20023;-79
2023/10/20 05:45:50;;;;;;;49.20;24.05;;;11.40;99.90;;;;;;5130748;27;20027;-79
2023/10/20 05:48:16;;;;;;;48.67;24.05;;;11.40;99.90;;;;;;5118390;27;20036;-80
2023/10/20 05:50:41;;;;;;;49.97;24.92;;;11.40;99.90;;;;;;5092009;28;20039;-79
2023/10/20 05:53:07;;;;;;;50.97;26.00;;;11.40;99.90;;;;;;5110349;28;20028;-78
2023/10/20 05:55:33;;;;;;;57.97;26.23;;;11.40;99.90;;;;;;5122118;27;20019;-76
2023/10/20 05:57:59;;;;;;;50.90;26.35;;;11.40;99.90;;;;;;5104329;28;20038;-75
2023/10/20 06:00:25;;;;;;;52.70;26.85;;;11.40;99.90;;;;;;5090774;28;20027;-75
2023/10/20 06:02:50;;;;;;;51.53;26.90;;;11.40;99.90;;;;;;5109945;28;20577;-78
2023/10/20 06:05:16;;;;;;;55.85;27.10;;;11.40;99.90;;;;;;5108839;28;20034;-77
2023/10/20 06:07:43;;;;;;;49.17;25.70;;;11.40;99.90;;;;;;5109661;28;20031;-77
2023/10/20 06:10:09;;;;;;;52.97;26.90;;;11.40;99.90;;;;;;5091358;28;20031;-77
2023/10/20 06:12:35;;;;;;;52.55;27.15;;;11.40;99.90;;;;;;5109112;28;20038;-77
2023/10/20 06:15:00;;;;;;;50.40;26.65;;;11.40;99.90;;;;;;5109757;28;20024;-78
2023/10/20 06:17:26;;;;;;;52.10;27.17;;;11.40;99.90;;;;;;5108429;28;20124;-78
2023/10/20 06:19:51;;;;;;;59.58;29.27;;;11.40;99.90;;;;;;5109688;28;20062;-78
2023/10/20 06:22:17;;;;;;;55.67;28.42;;;11.40;99.90;;;;;;5090339;28;20024;-74
2023/10/20 06:24:44;;;;;;;51.22;26.92;;;11.40;99.90;;;;;;5109668;28;20051;-79
2023/10/20 06:27:11;;;;;;;57.67;28.33;;;11.40;99.90;;;;;;5109425;28;20488;-78
2023/10/20 06:29:48;;;;;;;52.38;27.13;;;11.40;99.90;;;;;;5122470;27;20051;-77
2023/10/20 06:32:25;;;;;;;61.50;29.65;;;11.40;99.90;;;;;;5105741;28;20046;-77
2023/10/20 06:34:53;;;;;;;55.45;28.02;;;11.40;99.90;;;;;;5109876;28;20027;-76
2023/10/20 06:37:46;;;;;;;56.55;28.83;;;11.50;99.90;;;;;;5115579;27;20042;-77
2023/10/20 06:40:12;;;;;;;57.03;28.88;;;11.50;99.90;;;;;;5108433;28;20027;-79
2023/10/20 06:42:37;;;;;;;56.00;28.00;;;11.50;99.90;;;;;;5103253;28;20046;-73
2023/10/20 06:45:04;;;;;;;62.72;29.98;;;11.50;99.90;;;;;;5100647;27;20032;-75
2023/10/20 06:47:30;;;;;;;54.47;27.85;;;11.50;99.90;;;;;;5104633;28;20027;-79
2023/10/20 06:49:56;;;;;;;61.58;29.17;;;11.50;99.90;;;;;;5102140;27;20380;-78
2023/10/20 06:52:21;;;;;;;57.75;28.20;;;11.60;99.90;;;;;;5100868;27;20731;-76
2023/10/20 06:54:48;;;;;;;62.22;30.23;;;11.60;99.90;;;;;;5104691;28;20024;-77
2023/10/20 06:57:15;;;;;;;60.45;28.15;;;11.60;99.90;;;;;;5103625;28;20019;-76
2023/10/20 06:59:40;;;;;;;55.97;28.80;;;11.70;99.90;;;;;;5099412;28;20109;-78
2023/10/20 07:02:06;;;;;;;55.47;29.40;;;11.70;99.90;;;;;;5115340;27;20455;-73
2023/10/20 07:04:32;;;;;;;56.08;27.70;;;11.80;99.90;;;;;;5101762;28;20479;-75
2023/10/20 07:06:58;;;;;;;60.83;28.60;;;11.80;99.90;;;;;;5102023;27;20020;-74
2023/10/20 07:09:24;;;;;;;58.90;28.85;;;11.80;99.90;;;;;;5101970;28;20472;-74
2023/10/20 07:11:49;;;;;;;57.42;29.35;;;11.80;99.90;;;;;;5116158;27;20122;-75
2023/10/20 07:14:15;;;;;;;53.30;27.45;;;11.80;99.90;;;;;;5081860;28;20024;-78
2023/10/20 07:16:41;;;;;;;58.47;27.10;;;11.90;99.90;;;;;;5093014;28;20023;-77
2023/10/20 07:19:07;;;;;;;52.60;26.33;;;11.90;99.90;;;;;;5098704;28;20543;-77
2023/10/20 07:21:34;;;;;;;57.75;27.88;;;11.90;99.90;;;;;;5102342;28;20071;-77
2023/10/20 07:24:02;;;;;;;56.33;28.88;;;12.00;99.90;;;;;;5114585;28;20070;-78
2023/10/20 07:26:29;;;;;;;49.03;26.90;;;12.00;99.90;;;;;;5105349;28;20423;-79
2023/10/20 07:28:54;;;;;;;60.22;28.55;;;12.10;99.90;;;;;;5087834;28;20110;-80
2023/10/20 07:31:21;;;;;;;55.67;26.67;;;12.10;99.90;;;;;;5121834;27;20429;-78
2023/10/20 07:33:49;;;;;;;50.33;25.25;;;12.10;99.90;;;;;;5106048;28;20032;-78
2023/10/20 07:36:15;;;;;;;48.47;25.92;;;12.10;99.90;;;;;;5115177;28;20028;-78
2023/10/20 07:38:42;;;;;;;47.88;24.75;;;12.20;99.90;;;;;;5089987;28;20105;-76
2023/10/20 07:41:11;;;;;;;43.67;23.15;;;12.20;99.90;;;;;;5106145;28;20024;-77
2023/10/20 07:43:37;;;;;;;41.90;22.63;;;12.30;99.90;;;;;;5105858;28;20044;-80
2023/10/20 07:46:03;;;;;;;43.95;22.60;;;12.40;99.90;;;;;;5098213;28;20043;-79
2023/10/20 07:48:31;;;;;;;38.35;21.13;;;12.40;99.90;;;;;;5098819;28;20035;-78
2023/10/20 07:50:59;;;;;;;41.20;21.52;;;12.40;99.90;;;;;;5098831;28;20027;-78
2023/10/20 07:53:25;;;;;;;45.40;21.98;;;12.40;99.90;;;;;;5099898;28;20593;-78
2023/10/20 07:55:51;;;;;;;42.50;22.25;;;12.50;99.90;;;;;;5099270;28;20322;-79
2023/10/20 07:58:17;;;;;;;37.90;21.05;;;12.50;99.90;;;;;;5098410;27;20349;-76
2023/10/20 08:00:42;;;;;;;40.83;22.08;;;12.60;99.90;;;;;;5108251;27;20027;-75
2023/10/20 08:03:11;;;;;;;41.33;20.83;;;12.60;99.90;;;;;;5090780;28;20058;-78
2023/10/20 08:05:37;;;;;;;30.75;16.30;;;12.70;99.90;;;;;;5122472;27;20036;-77
2023/10/20 08:08:04;;;;;;;34.40;17.23;;;13.00;99.90;;;;;;5109957;28;20369;-77
2023/10/20 08:10:30;;;;;;;42.72;17.88;;;13.20;99.90;;;;;;5110984;27;20077;-76
2023/10/20 08:12:56;;;;;;;30.88;16.30;;;13.30;99.90;;;;;;5110500;27;20043;-77
2023/10/20 08:15:21;;;;;;;33.47;17.33;;;13.40;99.90;;;;;;5108879;27;20036;-75
2023/10/20 08:17:48;;;;;;;33.42;17.05;;;13.50;99.90;;;;;;5110993;28;20044;-80
2023/10/20 08:20:14;;;;;;;34.22;17.10;;;13.50;99.90;;;;;;5108226;27;20074;-78
2023/10/20 08:22:40;;;;;;;37.10;16.45;;;13.60;99.90;;;;;;5125093;27;20110;-77
2023/10/20 08:25:07;;;;;;;28.98;15.80;;;13.70;99.90;;;;;;5110370;28;20123;-80
2023/10/20 08:27:33;;;;;;;28.55;15.52;;;13.70;99.90;;;;;;5108947;28;20093;-78
2023/10/20 08:29:58;;;;;;;32.05;17.20;;;13.80;99.90;;;;;;5108141;27;20039;-79
2023/10/20 08:32:24;;;;;;;33.95;18.00;;;13.90;99.90;;;;;;5109018;27;20047;-77
2023/10/20 08:34:50;;;;;;;30.98;16.52;;;13.80;99.90;;;;;;5111018;28;20418;-77
2023/10/20 08:37:17;;;;;;;28.15;16.70;;;13.90;99.90;;;;;;5111093;28;20020;-76
2023/10/20 08:39:44;;;;;;;29.52;16.60;;;13.90;99.90;;;;;;5111990;27;20050;-77
2023/10/20 08:42:17;;;;;;;29.67;15.75;;;13.90;99.90;;;;;;5113707;27;20056;-78
2023/10/20 08:44:43;;;;;;;28.75;15.77;;;13.90;99.90;;;;;;5092856;27;20669;-76
2023/10/20 08:47:15;;;;;;;30.20;16.42;;;14.00;99.90;;;;;;5107885;27;20380;-80
2023/10/20 08:49:41;;;;;;;29.83;17.10;;;14.00;99.90;;;;;;5109809;27;20035;-78
2023/10/20 08:52:10;;;;;;;30.45;16.80;;;14.00;99.90;;;;;;5109962;27;20035;-78
2023/10/20 08:54:37;;;;;;;39.58;21.13;;;14.00;99.90;;;;;;5109758;28;20052;-78
2023/10/20 08:57:03;;;;;;;27.38;15.75;;;14.10;99.90;;;;;;5092592;28;20379;-79
2023/10/20 08:59:29;;;;;;;32.40;17.15;;;14.10;99.90;;;;;;5106564;28;20122;-79
2023/10/20 09:01:55;;;;;;;33.78;17.05;;;14.10;99.90;;;;;;5088640;28;20142;-79
2023/10/20 09:04:25;;;;;;;30.85;17.17;;;14.10;99.90;;;;;;5125777;27;20539;-80
2023/10/20 09:06:52;;;;;;;28.95;16.27;;;14.20;99.90;;;;;;5110877;28;20024;-78
2023/10/20 09:09:19;;;;;;;27.85;17.58;;;14.20;99.90;;;;;;5091666;28;20027;-77
2023/10/20 09:11:45;;;;;;;34.30;18.55;;;14.20;99.90;;;;;;5090529;28;20043;-77
2023/10/20 09:14:14;;;;;;;34.35;17.38;;;14.30;99.90;;;;;;5092172;28;20353;-77
2023/10/20 09:16:42;;;;;;;29.35;17.08;;;14.30;99.90;;;;;;5109754;28;20031;-74
2023/10/20 09:19:11;;;;;;;32.97;18.08;;;14.20;99.90;;;;;;5110503;28;20040;-76
2023/10/20 09:21:41;;;;;;;29.50;17.70;;;14.20;99.90;;;;;;5109997;28;20035;-81
2023/10/20 09:24:09;;;;;;;34.93;19.47;;;14.20;99.90;;;;;;5092196;28;20035;-79
2023/10/20 09:26:39;;;;;;;34.17;18.88;;;14.10;99.90;;;;;;5091430;28;20032;-82
2023/10/20 09:29:07;;;;;;;36.00;19.17;;;14.10;99.90;;;;;;5109236;28;20198;-77
2023/10/20 09:31:34;;;;;;;38.80;19.90;;;14.10;99.90;;;;;;5090913;28;20113;-77
2023/10/20 09:34:00;;;;;;;37.03;19.77;;;14.20;99.90;;;;;;5110474;28;20092;-79
2023/10/20 09:36:30;;;;;;;34.88;18.48;;;14.20;99.90;;;;;;5109468;28;20023;-76
2023/10/20 09:39:00;;;;;;;36.10;18.80;;;14.20;99.90;;;;;;5094152;28;20432;-76
2023/10/20 09:41:28;;;;;;;35.78;19.75;;;14.20;99.90;;;;;;5109681;28;20042;-80
2023/10/20 09:44:08;;;;;;;39.97;20.85;;;14.20;99.90;;;;;;5125948;27;20039;-79
2023/10/20 09:46:55;;;;;;;35.35;18.73;;;14.10;99.90;;;;;;5109058;28;20043;-80
2023/10/20 09:49:25;;;;;;;37.05;19.42;;;14.20;99.90;;;;;;5125915;27;20084;-79
2023/10/20 09:51:53;;;;;;;34.47;19.00;;;14.20;99.90;;;;;;5090774;28;20059;-81
2023/10/20 09:54:33;;;;;;;35.65;19.02;;;14.30;99.90;;;;;;5091030;28;20038;-80
2023/10/20 09:57:00;;;;;;;40.55;20.00;;;14.40;99.90;;;;;;5088221;28;20028;-80
2023/10/20 09:59:30;;;;;;;41.67;22.58;;;14.50;99.90;;;;;;5108419;28;20545;-76
2023/10/20 10:01:57;;;;;;;41.00;22.17;;;14.60;99.90;;;;;;5109433;28;20053;-78
2023/10/20 10:04:28;;;;;;;44.17;23.77;;;14.60;99.90;;;;;;5124498;27;20032;-77
2023/10/20 10:06:55;;;;;;;44.55;23.48;;;14.70;99.90;;;;;;5109414;28;20096;-80
2023/10/20 10:09:21;;;;;;;42.75;23.40;;;14.70;99.90;;;;;;5089849;28;20031;-80
2023/10/20 10:11:48;;;;;;;41.92;23.58;;;14.80;99.90;;;;;;5098924;27;20027;-81
2023/10/20 10:14:21;;;;;;;46.72;24.48;;;14.80;99.90;;;;;;5108246;28;20027;-78
2023/10/20 10:16:54;;;;;;;41.75;23.98;;;14.90;99.90;;;;;;5088216;28;20020;-77
2023/10/20 10:19:23;;;;;;;40.42;23.00;;;14.90;99.90;;;;;;5107775;27;20809;-78
2023/10/20 10:21:53;;;;;;;45.95;24.60;;;15.20;99.90;;;;;;5109391;28;20547;-80
2023/10/20 10:24:19;;;;;;;40.87;23.90;;;15.30;99.90;;;;;;5109962;28;20114;-81
2023/10/20 10:26:53;;;;;;;40.78;22.80;;;15.50;99.90;;;;;;5124332;27;20689;-78
2023/10/20 10:29:39;;;;;;;44.75;23.33;;;15.40;99.90;;;;;;5109762;28;20031;-80
2023/10/20 10:32:12;;;;;;;41.38;23.00;;;15.50;99.90;;;;;;5090391;28;20042;-79
2023/10/20 10:34:42;;;;;;;40.90;23.13;;;15.50;99.90;;;;;;5108330;28;20102;-80
2023/10/20 10:37:08;;;;;;;40.50;22.70;;;15.50;99.90;;;;;;5105797;28;20387;-77
2023/10/20 10:39:33;;;;;;;35.90;21.85;;;15.70;99.90;;;;;;5089229;28;20031;-79
2023/10/20 10:42:04;;;;;;;39.13;22.27;;;15.70;99.90;;;;;;5086292;28;20031;-80
2023/10/20 10:44:36;;;;;;;38.63;20.75;;;15.70;99.90;;;;;;5107354;27;20044;-78
2023/10/20 10:47:04;;;;;;;34.33;20.45;;;15.80;99.90;;;;;;5106682;28;20024;-79
2023/10/20 10:49:31;;;;;;;32.75;19.83;;;15.80;99.90;;;;;;5107190;28;20034;-77
2023/10/20 10:51:58;;;;;;;35.95;19.52;;;15.90;99.90;;;;;;5106360;28;20171;-79
2023/10/20 10:54:26;;;;;;;34.75;20.30;;;15.90;99.90;;;;;;5108849;28;20051;-77
2023/10/20 10:56:52;;;;;;;32.22;19.23;;;15.90;99.90;;;;;;5106932;28;20032;-78
2023/10/20 10:59:19;;;;;;;35.17;19.83;;;15.90;99.90;;;;;;5112533;27;20514;-79
2023/10/20 11:01:45;;;;;;;35.10;20.23;;;16.00;99.90;;;;;;5071133;28;20103;-76
2023/10/20 11:04:12;;;;;;;29.90;16.70;;;16.10;99.90;;;;;;5105326;28;20123;-77
2023/10/20 11:06:38;;;;;;;35.72;18.33;;;16.20;99.90;;;;;;5102221;28;20095;-78
2023/10/20 11:09:10;;;;;;;32.63;19.38;;;16.30;99.90;;;;;;5082901;28;20020;-78
2023/10/20 11:11:42;;;;;;;28.95;17.15;;;16.20;99.90;;;;;;5085973;28;20106;-77
2023/10/20 11:14:09;;;;;;;27.77;16.25;;;16.20;99.90;;;;;;5090293;28;20543;-77
2023/10/20 11:16:38;;;;;;;27.40;13.45;;;16.10;99.90;;;;;;5105963;28;20063;-75
2023/10/20 11:19:04;;;;;;;24.08;13.88;;;16.10;99.90;;;;;;5109185;28;20151;-77
2023/10/20 11:21:42;;;;;;;21.70;11.98;;;16.20;99.90;;;;;;5107061;28;20123;-76
2023/10/20 11:24:08;;;;;;;19.27;10.88;;;16.20;99.90;;;;;;5124208;28;20027;-80
2023/10/20 11:26:35;;;;;;;18.45;11.13;;;16.20;99.90;;;;;;5103388;28;20078;-80
2023/10/20 11:29:07;;;;;;;18.90;10.57;;;16.20;99.90;;;;;;5121592;28;20436;-79
2023/10/20 11:31:35;;;;;;;15.15;8.75;;;16.30;99.90;;;;;;5106453;28;20035;-76
2023/10/20 11:34:01;;;;;;;12.73;7.07;;;16.30;99.90;;;;;;5110340;28;20077;-79
2023/10/20 11:36:26;;;;;;;9.63;6.20;;;16.30;99.90;;;;;;5111944;27;20058;-80
2023/10/20 11:38:52;;;;;;;10.05;5.88;;;16.40;99.90;;;;;;5109219;28;20028;-78
2023/10/20 11:41:17;;;;;;;9.63;6.20;;;16.40;99.90;;;;;;5088314;28;20069;-78
2023/10/20 11:43:43;;;;;;;13.70;5.82;;;16.30;99.90;;;;;;5102204;28;20078;-78
2023/10/20 11:46:11;;;;;;;9.48;4.55;;;16.40;99.90;;;;;;5120722;27;20024;-80
2023/10/20 11:48:37;;;;;;;6.60;3.90;;;16.50;99.90;;;;;;5098605;28;20038;-76
2023/10/20 11:51:02;;;;;;;6.45;3.67;;;16.60;99.90;;;;;;5112426;28;20107;-79
2023/10/20 11:53:28;;;;;;;5.63;3.63;;;16.60;99.90;;;;;;5127033;27;20067;-77
2023/10/20 11:55:54;;;;;;;5.72;2.80;;;16.50;99.90;;;;;;5111122;28;20074;-76
2023/10/20 11:58:20;;;;;;;4.80;2.78;;;16.40;99.90;;;;;;5092967;28;20108;-79
2023/10/20 12:00:46;;;;;;;4.15;2.70;;;16.40;99.90;;;;;;5077714;28;20487;-79
2023/10/20 12:03:11;;;;;;;4.88;2.88;;;16.40;99.90;;;;;;5110377;28;20034;-76
2023/10/20 12:05:37;;;;;;;5.25;2.78;;;16.40;99.90;;;;;;5111171;28;20114;-77
2023/10/20 12:08:04;;;;;;;4.82;2.88;;;16.40;99.90;;;;;;5121960;27;20409;-80
2023/10/20 12:10:31;;;;;;;3.40;2.50;;;16.50;99.90;;;;;;5092608;28;20039;-76
2023/10/20 12:13:02;;;;;;;4.78;2.67;;;16.50;99.90;;;;;;5106134;28;20082;-78
2023/10/20 12:15:28;;;;;;;;;;;16.50;99.90;;;;;;5092400;28;20027;-78
2023/10/20 12:17:53;;;;;;;3.28;2.30;;;16.50;99.90;;;;;;5088481;28;20238;-79
2023/10/20 12:20:19;;;;;;;4.50;2.42;;;16.40;99.90;;;;;;5091852;28;20032;-80
2023/10/20 12:22:45;;;;;;;6.35;2.95;;;16.50;99.90;;;;;;5091057;28;20107;-78
2023/10/20 12:25:10;;;;;;;4.85;2.35;;;16.40;99.90;;;;;;5124180;27;20461;-81
2023/10/20 12:27:37;;;;;;;4.00;2.35;;;16.40;99.90;;;;;;5089668;28;20073;-76
2023/10/20 12:30:03;;;;;;;4.95;2.08;;;16.50;99.90;;;;;;5091703;28;20023;-81
2023/10/20 12:32:29;;;;;;;4.00;2.40;;;16.50;99.90;;;;;;5091122;28;20112;-80
2023/10/20 12:34:55;;;;;;;3.83;2.13;;;16.50;99.90;;;;;;5090884;28;20107;-78
2023/10/20 12:37:20;;;;;;;4.03;2.22;;;16.50;99.90;;;;;;5091352;28;20483;-81
2023/10/20 12:39:46;;;;;;;4.85;2.22;;;16.40;99.90;;;;;;5091069;28;20016;-80
2023/10/20 12:42:12;;;;;;;2.70;1.90;;;16.40;99.90;;;;;;5091590;28;20024;-79
2023/10/20 12:44:38;;;;;;;6.45;2.20;;;16.40;99.90;;;;;;5090131;28;20036;-80
2023/10/20 12:47:06;;;;;;;4.18;2.05;;;16.50;99.90;;;;;;5091051;28;20035;-78
2023/10/20 12:49:31;;;;;;;3.20;2.00;;;16.40;99.90;;;;;;5091136;28;20361;-79
2023/10/20 12:51:57;;;;;;;3.67;2.30;;;16.40;99.90;;;;;;5090568;28;20024;-82
2023/10/20 12:54:23;;;;;;;3.63;2.08;;;16.40;99.90;;;;;;5091035;28;20387;-80
2023/10/20 12:56:49;;;;;;;3.15;2.03;;;16.40;99.90;;;;;;5090574;28;20028;-78